sensor_id;sensor_type;location;lat;lon;timestamp;P1;durP1;ratioP1;P2;durP2;ratioP2
9848;SDS011;4963;51.444;6.528;2022-12-18T00:02:02;16.87;;;10.93;;
9848;SDS011;4963;51.444;6.528;2022-12-18T00:04:29;15.33;;;10.13;;
9848;SDS011;4963;51.444;6.528;2022-12-18T00:06:57;16.40;;;10.50;;
9848;SDS011;4963;51.444;6.528;2022-12-18T00:09:24;19.37;;;11.33;;
9848;SDS011;4963;51.444;6.528;2022-12-18T00:11:51;15.23;;;10.33;;
9848;SDS011;4963;51.444;6.528;2022-12-18T00:14:21;15.23;;;10.20;;
9848;SDS011;4963;51.444;6.528;2022-12-18T00:16:51;16.40;;;9.53;;
9848;SDS011;4963;51.444;6.528;2022-12-18T00:19:18;14.30;;;9.97;;
9848;SDS011;4963;51.444;6.528;2022-12-18T00:21:44;16.40;;;10.13;;
9848;SDS011;4963;51.444;6.528;2022-12-18T00:24:12;15.83;;;10.20;;
9848;SDS011;4963;51.444;6.528;2022-12-18T00:26:39;16.43;;;9.93;;
9848;SDS011;4963;51.444;6.528;2022-12-18T00:29:07;14.53;;;9.20;;
9848;SDS011;4963;51.444;6.528;2022-12-18T00:31:37;15.10;;;9.57;;
9848;SDS011;4963;51.444;6.528;2022-12-18T00:34:04;17.57;;;10.53;;
9848;SDS011;4963;51.444;6.528;2022-12-18T00:36:32;13.50;;;9.53;;
9848;SDS011;4963;51.444;6.528;2022-12-18T00:39:01;18.80;;;10.60;;
9848;SDS011;4963;51.444;6.528;2022-12-18T00:41:30;14.13;;;9.67;;
9848;SDS011;4963;51.444;6.528;2022-12-18T00:44:15;13.60;;;8.40;;
9848;SDS011;4963;51.444;6.528;2022-12-18T00:46:43;16.60;;;9.80;;
9848;SDS011;4963;51.444;6.528;2022-12-18T00:49:11;15.60;;;9.20;;
9848;SDS011;4963;51.444;6.528;2022-12-18T00:51:38;17.20;;;9.10;;
9848;SDS011;4963;51.444;6.528;2022-12-18T00:54:05;14.60;;;9.10;;
9848;SDS011;4963;51.444;6.528;2022-12-18T00:56:33;14.17;;;9.40;;
9848;SDS011;4963;51.444;6.528;2022-12-18T00:59:01;14.10;;;9.30;;
9848;SDS011;4963;51.444;6.528;2022-12-18T01:01:28;13.27;;;8.53;;
9848;SDS011;4963;51.444;6.528;2022-12-18T01:03:55;15.77;;;8.33;;
9848;SDS011;4963;51.444;6.528;2022-12-18T01:06:21;14.47;;;9.07;;
9848;SDS011;4963;51.444;6.528;2022-12-18T01:08:48;17.33;;;9.13;;
9848;SDS011;4963;51.444;6.528;2022-12-18T01:11:16;12.30;;;8.53;;
9848;SDS011;4963;51.444;6.528;2022-12-18T01:13:45;12.63;;;8.30;;
9848;SDS011;4963;51.444;6.528;2022-12-18T01:16:12;12.90;;;8.47;;
9848;SDS011;4963;51.444;6.528;2022-12-18T01:18:40;17.27;;;8.60;;
9848;SDS011;4963;51.444;6.528;2022-12-18T01:21:07;13.20;;;8.80;;
9848;SDS011;4963;51.444;6.528;2022-12-18T01:23:34;14.10;;;9.47;;
9848;SDS011;4963;51.444;6.528;2022-12-18T01:26:05;12.90;;;8.17;;
9848;SDS011;4963;51.444;6.528;2022-12-18T01:28:32;16.77;;;9.07;;
9848;SDS011;4963;51.444;6.528;2022-12-18T01:31:10;13.50;;;8.73;;
9848;SDS011;4963;51.444;6.528;2022-12-18T01:33:41;15.07;;;8.47;;
9848;SDS011;4963;51.444;6.528;2022-12-18T01:36:13;15.57;;;8.73;;
9848;SDS011;4963;51.444;6.528;2022-12-18T01:38:41;13.57;;;9.13;;
9848;SDS011;4963;51.444;6.528;2022-12-18T01:41:08;14.17;;;8.30;;
9848;SDS011;4963;51.444;6.528;2022-12-18T01:43:46;15.30;;;9.60;;
9848;SDS011;4963;51.444;6.528;2022-12-18T01:46:16;12.80;;;8.13;;
9848;SDS011;4963;51.444;6.528;2022-12-18T01:48:44;14.43;;;8.30;;
9848;SDS011;4963;51.444;6.528;2022-12-18T01:51:13;14.70;;;9.00;;
9848;SDS011;4963;51.444;6.528;2022-12-18T01:53:40;14.37;;;8.47;;
9848;SDS011;4963;51.444;6.528;2022-12-18T01:56:08;14.23;;;8.60;;
9848;SDS011;4963;51.444;6.528;2022-12-18T01:58:39;13.10;;;8.10;;
9848;SDS011;4963;51.444;6.528;2022-12-18T02:01:12;15.03;;;8.50;;
9848;SDS011;4963;51.444;6.528;2022-12-18T02:03:42;12.50;;;8.60;;
9848;SDS011;4963;51.444;6.528;2022-12-18T02:06:11;13.63;;;8.50;;
9848;SDS011;4963;51.444;6.528;2022-12-18T02:08:43;13.33;;;8.53;;
9848;SDS011;4963;51.444;6.528;2022-12-18T02:11:18;13.77;;;8.83;;
9848;SDS011;4963;51.444;6.528;2022-12-18T02:13:52;13.83;;;8.43;;
9848;SDS011;4963;51.444;6.528;2022-12-18T02:16:24;13.97;;;8.53;;
9848;SDS011;4963;51.444;6.528;2022-12-18T02:18:57;13.27;;;8.63;;
9848;SDS011;4963;51.444;6.528;2022-12-18T02:21:28;16.73;;;9.00;;
9848;SDS011;4963;51.444;6.528;2022-12-18T02:24:07;15.83;;;9.33;;
9848;SDS011;4963;51.444;6.528;2022-12-18T02:26:45;15.80;;;8.93;;
9848;SDS011;4963;51.444;6.528;2022-12-18T02:29:15;13.43;;;8.40;;
9848;SDS011;4963;51.444;6.528;2022-12-18T02:31:45;14.47;;;9.53;;
9848;SDS011;4963;51.444;6.528;2022-12-18T02:34:16;15.53;;;8.87;;
9848;SDS011;4963;51.444;6.528;2022-12-18T02:36:45;13.23;;;8.43;;
9848;SDS011;4963;51.444;6.528;2022-12-18T02:39:14;16.27;;;8.87;;
9848;SDS011;4963;51.444;6.528;2022-12-18T02:41:42;13.77;;;8.87;;
9848;SDS011;4963;51.444;6.528;2022-12-18T02:44:12;13.50;;;8.80;;
9848;SDS011;4963;51.444;6.528;2022-12-18T02:46:41;12.80;;;8.70;;
9848;SDS011;4963;51.444;6.528;2022-12-18T02:49:15;11.93;;;8.13;;
9848;SDS011;4963;51.444;6.528;2022-12-18T02:51:51;11.93;;;8.10;;
9848;SDS011;4963;51.444;6.528;2022-12-18T02:54:24;12.77;;;8.30;;
9848;SDS011;4963;51.444;6.528;2022-12-18T02:57:03;13.37;;;8.53;;
9848;SDS011;4963;51.444;6.528;2022-12-18T02:59:39;16.80;;;9.30;;
9848;SDS011;4963;51.444;6.528;2022-12-18T03:02:16;14.90;;;8.87;;
9848;SDS011;4963;51.444;6.528;2022-12-18T03:04:49;14.70;;;8.80;;
9848;SDS011;4963;51.444;6.528;2022-12-18T03:07:23;14.37;;;8.90;;
9848;SDS011;4963;51.444;6.528;2022-12-18T03:09:56;14.20;;;9.77;;
9848;SDS011;4963;51.444;6.528;2022-12-18T03:12:27;14.50;;;7.93;;
9848;SDS011;4963;51.444;6.528;2022-12-18T03:14:58;14.17;;;8.90;;
9848;SDS011;4963;51.444;6.528;2022-12-18T03:17:30;15.53;;;8.83;;
9848;SDS011;4963;51.444;6.528;2022-12-18T03:19:59;14.43;;;9.03;;
9848;SDS011;4963;51.444;6.528;2022-12-18T03:22:32;13.67;;;8.57;;
9848;SDS011;4963;51.444;6.528;2022-12-18T03:25:02;16.40;;;9.50;;
9848;SDS011;4963;51.444;6.528;2022-12-18T03:27:33;12.40;;;8.00;;
9848;SDS011;4963;51.444;6.528;2022-12-18T03:30:04;13.73;;;8.87;;
9848;SDS011;4963;51.444;6.528;2022-12-18T03:32:38;12.83;;;8.27;;
9848;SDS011;4963;51.444;6.528;2022-12-18T03:35:08;15.73;;;9.43;;
9848;SDS011;4963;51.444;6.528;2022-12-18T03:37:37;13.17;;;8.73;;
9848;SDS011;4963;51.444;6.528;2022-12-18T03:40:04;13.63;;;8.57;;
9848;SDS011;4963;51.444;6.528;2022-12-18T03:42:35;12.53;;;8.37;;
9848;SDS011;4963;51.444;6.528;2022-12-18T03:45:10;14.43;;;8.43;;
9848;SDS011;4963;51.444;6.528;2022-12-18T03:47:46;18.00;;;9.00;;
9848;SDS011;4963;51.444;6.528;2022-12-18T03:50:25;12.60;;;7.83;;
9848;SDS011;4963;51.444;6.528;2022-12-18T03:53:03;15.43;;;9.30;;
9848;SDS011;4963;51.444;6.528;2022-12-18T03:55:39;14.13;;;8.77;;
9848;SDS011;4963;51.444;6.528;2022-12-18T03:58:09;13.93;;;8.87;;
9848;SDS011;4963;51.444;6.528;2022-12-18T04:00:40;13.97;;;8.27;;
9848;SDS011;4963;51.444;6.528;2022-12-18T04:03:08;12.67;;;8.37;;
9848;SDS011;4963;51.444;6.528;2022-12-18T04:05:36;14.87;;;8.40;;
9848;SDS011;4963;51.444;6.528;2022-12-18T04:08:04;12.77;;;7.43;;
9848;SDS011;4963;51.444;6.528;2022-12-18T04:10:31;14.53;;;8.80;;
9848;SDS011;4963;51.444;6.528;2022-12-18T04:12:58;13.43;;;8.97;;
9848;SDS011;4963;51.444;6.528;2022-12-18T04:15:26;14.00;;;8.77;;
9848;SDS011;4963;51.444;6.528;2022-12-18T04:17:53;14.73;;;8.20;;
9848;SDS011;4963;51.444;6.528;2022-12-18T04:20:20;13.90;;;8.20;;
9848;SDS011;4963;51.444;6.528;2022-12-18T04:22:47;12.27;;;8.23;;
9848;SDS011;4963;51.444;6.528;2022-12-18T04:25:14;12.73;;;8.00;;
9848;SDS011;4963;51.444;6.528;2022-12-18T04:27:41;14.47;;;8.23;;
9848;SDS011;4963;51.444;6.528;2022-12-18T04:30:08;12.90;;;8.10;;
9848;SDS011;4963;51.444;6.528;2022-12-18T04:32:36;12.77;;;8.10;;
9848;SDS011;4963;51.444;6.528;2022-12-18T04:35:03;13.73;;;8.70;;
9848;SDS011;4963;51.444;6.528;2022-12-18T04:37:33;10.53;;;7.67;;
9848;SDS011;4963;51.444;6.528;2022-12-18T04:40:00;11.57;;;7.53;;
9848;SDS011;4963;51.444;6.528;2022-12-18T04:42:26;12.57;;;7.83;;
9848;SDS011;4963;51.444;6.528;2022-12-18T04:44:53;14.10;;;8.17;;
9848;SDS011;4963;51.444;6.528;2022-12-18T04:47:20;11.47;;;7.83;;
9848;SDS011;4963;51.444;6.528;2022-12-18T04:49:48;11.43;;;7.70;;
9848;SDS011;4963;51.444;6.528;2022-12-18T04:52:15;12.00;;;7.23;;
9848;SDS011;4963;51.444;6.528;2022-12-18T04:54:42;12.80;;;7.80;;
9848;SDS011;4963;51.444;6.528;2022-12-18T04:57:09;12.17;;;7.37;;
9848;SDS011;4963;51.444;6.528;2022-12-18T04:59:36;11.43;;;7.73;;
9848;SDS011;4963;51.444;6.528;2022-12-18T05:02:02;12.53;;;7.20;;
9848;SDS011;4963;51.444;6.528;2022-12-18T05:04:29;12.10;;;7.37;;
9848;SDS011;4963;51.444;6.528;2022-12-18T05:06:57;11.20;;;7.43;;
9848;SDS011;4963;51.444;6.528;2022-12-18T05:09:24;11.53;;;6.60;;
9848;SDS011;4963;51.444;6.528;2022-12-18T05:11:51;10.33;;;7.00;;
9848;SDS011;4963;51.444;6.528;2022-12-18T05:14:18;11.03;;;7.67;;
9848;SDS011;4963;51.444;6.528;2022-12-18T05:16:45;12.60;;;7.40;;
9848;SDS011;4963;51.444;6.528;2022-12-18T05:19:12;10.00;;;6.87;;
9848;SDS011;4963;51.444;6.528;2022-12-18T05:21:39;11.03;;;7.27;;
9848;SDS011;4963;51.444;6.528;2022-12-18T05:24:07;10.03;;;7.10;;
9848;SDS011;4963;51.444;6.528;2022-12-18T05:26:34;12.23;;;7.57;;
9848;SDS011;4963;51.444;6.528;2022-12-18T05:29:01;11.03;;;6.97;;
9848;SDS011;4963;51.444;6.528;2022-12-18T05:31:27;11.47;;;7.07;;
9848;SDS011;4963;51.444;6.528;2022-12-18T05:33:54;11.33;;;6.60;;
9848;SDS011;4963;51.444;6.528;2022-12-18T05:36:21;10.63;;;6.97;;
9848;SDS011;4963;51.444;6.528;2022-12-18T05:38:48;10.80;;;7.03;;
9848;SDS011;4963;51.444;6.528;2022-12-18T05:41:16;11.93;;;7.13;;
9848;SDS011;4963;51.444;6.528;2022-12-18T05:43:42;10.47;;;6.70;;
9848;SDS011;4963;51.444;6.528;2022-12-18T05:46:11;8.93;;;6.40;;
9848;SDS011;4963;51.444;6.528;2022-12-18T05:48:40;13.27;;;6.87;;
9848;SDS011;4963;51.444;6.528;2022-12-18T05:51:08;10.53;;;6.70;;
9848;SDS011;4963;51.444;6.528;2022-12-18T05:53:36;10.73;;;7.00;;
9848;SDS011;4963;51.444;6.528;2022-12-18T05:56:04;11.70;;;7.07;;
9848;SDS011;4963;51.444;6.528;2022-12-18T05:58:34;10.63;;;6.67;;
9848;SDS011;4963;51.444;6.528;2022-12-18T06:01:06;9.67;;;6.53;;
9848;SDS011;4963;51.444;6.528;2022-12-18T06:03:34;13.80;;;8.20;;
9848;SDS011;4963;51.444;6.528;2022-12-18T06:06:01;12.07;;;7.10;;
9848;SDS011;4963;51.444;6.528;2022-12-18T06:08:27;13.63;;;9.63;;
9848;SDS011;4963;51.444;6.528;2022-12-18T06:10:54;11.83;;;8.10;;
9848;SDS011;4963;51.444;6.528;2022-12-18T06:13:22;12.30;;;7.80;;
9848;SDS011;4963;51.444;6.528;2022-12-18T06:15:50;12.13;;;7.23;;
9848;SDS011;4963;51.444;6.528;2022-12-18T06:18:17;12.10;;;7.90;;
9848;SDS011;4963;51.444;6.528;2022-12-18T06:20:44;11.93;;;7.97;;
9848;SDS011;4963;51.444;6.528;2022-12-18T06:23:10;17.97;;;10.47;;
9848;SDS011;4963;51.444;6.528;2022-12-18T06:25:39;15.20;;;7.40;;
9848;SDS011;4963;51.444;6.528;2022-12-18T06:28:06;13.53;;;8.37;;
9848;SDS011;4963;51.444;6.528;2022-12-18T06:30:32;15.10;;;8.07;;
9848;SDS011;4963;51.444;6.528;2022-12-18T06:33:01;11.60;;;7.50;;
9848;SDS011;4963;51.444;6.528;2022-12-18T06:35:27;10.63;;;6.83;;
9848;SDS011;4963;51.444;6.528;2022-12-18T06:37:54;11.17;;;7.07;;
9848;SDS011;4963;51.444;6.528;2022-12-18T06:40:21;15.13;;;8.53;;
9848;SDS011;4963;51.444;6.528;2022-12-18T06:42:48;11.87;;;7.70;;
9848;SDS011;4963;51.444;6.528;2022-12-18T06:45:15;14.33;;;7.20;;
9848;SDS011;4963;51.444;6.528;2022-12-18T06:47:41;12.07;;;7.73;;
9848;SDS011;4963;51.444;6.528;2022-12-18T06:50:10;11.80;;;7.20;;
9848;SDS011;4963;51.444;6.528;2022-12-18T06:52:37;10.47;;;7.07;;
9848;SDS011;4963;51.444;6.528;2022-12-18T06:55:05;11.57;;;7.57;;
9848;SDS011;4963;51.444;6.528;2022-12-18T06:57:33;12.77;;;7.77;;
9848;SDS011;4963;51.444;6.528;2022-12-18T07:00:00;14.60;;;7.23;;
9848;SDS011;4963;51.444;6.528;2022-12-18T07:02:27;10.60;;;7.17;;
9848;SDS011;4963;51.444;6.528;2022-12-18T07:04:54;12.17;;;6.73;;
9848;SDS011;4963;51.444;6.528;2022-12-18T07:07:22;10.70;;;6.60;;
9848;SDS011;4963;51.444;6.528;2022-12-18T07:09:49;11.40;;;7.43;;
9848;SDS011;4963;51.444;6.528;2022-12-18T07:12:17;14.03;;;8.87;;
9848;SDS011;4963;51.444;6.528;2022-12-18T07:14:43;11.30;;;7.67;;
9848;SDS011;4963;51.444;6.528;2022-12-18T07:17:10;14.33;;;8.50;;
9848;SDS011;4963;51.444;6.528;2022-12-18T07:19:37;12.30;;;7.77;;
9848;SDS011;4963;51.444;6.528;2022-12-18T07:22:04;13.30;;;7.60;;
9848;SDS011;4963;51.444;6.528;2022-12-18T07:24:33;11.20;;;7.30;;
9848;SDS011;4963;51.444;6.528;2022-12-18T07:27:00;11.27;;;7.00;;
9848;SDS011;4963;51.444;6.528;2022-12-18T07:29:27;11.40;;;6.00;;
9848;SDS011;4963;51.444;6.528;2022-12-18T07:31:53;11.47;;;6.80;;
9848;SDS011;4963;51.444;6.528;2022-12-18T07:34:20;11.57;;;6.90;;
9848;SDS011;4963;51.444;6.528;2022-12-18T07:36:47;13.03;;;7.63;;
9848;SDS011;4963;51.444;6.528;2022-12-18T07:39:14;10.43;;;7.10;;
9848;SDS011;4963;51.444;6.528;2022-12-18T07:41:42;12.80;;;7.77;;
9848;SDS011;4963;51.444;6.528;2022-12-18T07:44:29;11.93;;;7.40;;
9848;SDS011;4963;51.444;6.528;2022-12-18T07:46:55;12.53;;;7.27;;
9848;SDS011;4963;51.444;6.528;2022-12-18T07:49:22;15.30;;;7.73;;
9848;SDS011;4963;51.444;6.528;2022-12-18T07:51:49;11.23;;;7.20;;
9848;SDS011;4963;51.444;6.528;2022-12-18T07:54:16;12.33;;;7.77;;
9848;SDS011;4963;51.444;6.528;2022-12-18T07:56:44;10.53;;;7.13;;
9848;SDS011;4963;51.444;6.528;2022-12-18T07:59:10;15.63;;;8.27;;
9848;SDS011;4963;51.444;6.528;2022-12-18T08:01:37;12.60;;;7.33;;
9848;SDS011;4963;51.444;6.528;2022-12-18T08:04:04;14.13;;;7.90;;
9848;SDS011;4963;51.444;6.528;2022-12-18T08:06:31;14.17;;;7.90;;
9848;SDS011;4963;51.444;6.528;2022-12-18T08:08:58;13.77;;;8.70;;
9848;SDS011;4963;51.444;6.528;2022-12-18T08:11:25;12.13;;;7.53;;
9848;SDS011;4963;51.444;6.528;2022-12-18T08:13:54;12.40;;;7.80;;
9848;SDS011;4963;51.444;6.528;2022-12-18T08:16:22;13.57;;;7.30;;
9848;SDS011;4963;51.444;6.528;2022-12-18T08:18:49;13.40;;;8.00;;
9848;SDS011;4963;51.444;6.528;2022-12-18T08:21:18;11.80;;;8.00;;
9848;SDS011;4963;51.444;6.528;2022-12-18T08:23:47;13.97;;;7.73;;
9848;SDS011;4963;51.444;6.528;2022-12-18T08:26:15;13.87;;;8.10;;
9848;SDS011;4963;51.444;6.528;2022-12-18T08:28:42;12.93;;;7.33;;
9848;SDS011;4963;51.444;6.528;2022-12-18T08:31:10;10.70;;;7.57;;
9848;SDS011;4963;51.444;6.528;2022-12-18T08:33:38;13.53;;;8.37;;
9848;SDS011;4963;51.444;6.528;2022-12-18T08:36:07;14.63;;;8.93;;
9848;SDS011;4963;51.444;6.528;2022-12-18T08:38:35;15.57;;;10.03;;
9848;SDS011;4963;51.444;6.528;2022-12-18T08:41:03;12.23;;;8.20;;
9848;SDS011;4963;51.444;6.528;2022-12-18T08:43:31;11.00;;;7.73;;
9848;SDS011;4963;51.444;6.528;2022-12-18T08:46:17;12.23;;;8.03;;
9848;SDS011;4963;51.444;6.528;2022-12-18T08:48:44;11.40;;;7.67;;
9848;SDS011;4963;51.444;6.528;2022-12-18T08:51:11;11.50;;;7.87;;
9848;SDS011;4963;51.444;6.528;2022-12-18T08:53:38;13.00;;;8.00;;
9848;SDS011;4963;51.444;6.528;2022-12-18T08:56:05;13.67;;;8.80;;
9848;SDS011;4963;51.444;6.528;2022-12-18T08:58:32;11.73;;;8.10;;
9848;SDS011;4963;51.444;6.528;2022-12-18T09:00:59;14.17;;;8.07;;
9848;SDS011;4963;51.444;6.528;2022-12-18T09:03:28;12.50;;;7.27;;
9848;SDS011;4963;51.444;6.528;2022-12-18T09:05:55;12.37;;;7.07;;
9848;SDS011;4963;51.444;6.528;2022-12-18T09:08:22;12.13;;;7.87;;
9848;SDS011;4963;51.444;6.528;2022-12-18T09:10:49;12.57;;;7.73;;
9848;SDS011;4963;51.444;6.528;2022-12-18T09:13:17;13.10;;;8.10;;
9848;SDS011;4963;51.444;6.528;2022-12-18T09:15:45;15.00;;;9.43;;
9848;SDS011;4963;51.444;6.528;2022-12-18T09:18:13;12.33;;;8.37;;
9848;SDS011;4963;51.444;6.528;2022-12-18T09:20:42;13.47;;;8.10;;
9848;SDS011;4963;51.444;6.528;2022-12-18T09:23:10;11.07;;;7.50;;
9848;SDS011;4963;51.444;6.528;2022-12-18T09:25:37;13.03;;;8.13;;
9848;SDS011;4963;51.444;6.528;2022-12-18T09:28:05;13.97;;;7.80;;
9848;SDS011;4963;51.444;6.528;2022-12-18T09:30:36;12.70;;;7.93;;
9848;SDS011;4963;51.444;6.528;2022-12-18T09:33:03;12.50;;;7.83;;
9848;SDS011;4963;51.444;6.528;2022-12-18T09:35:30;13.97;;;9.13;;
9848;SDS011;4963;51.444;6.528;2022-12-18T09:37:58;14.67;;;9.13;;
9848;SDS011;4963;51.444;6.528;2022-12-18T09:40:34;15.77;;;9.33;;
9848;SDS011;4963;51.444;6.528;2022-12-18T09:43:06;13.57;;;8.53;;
9848;SDS011;4963;51.444;6.528;2022-12-18T09:45:41;14.13;;;8.13;;
9848;SDS011;4963;51.444;6.528;2022-12-18T09:48:11;14.37;;;8.87;;
9848;SDS011;4963;51.444;6.528;2022-12-18T09:50:45;11.83;;;8.20;;
9848;SDS011;4963;51.444;6.528;2022-12-18T09:53:15;15.37;;;8.67;;
9848;SDS011;4963;51.444;6.528;2022-12-18T09:55:47;11.37;;;7.90;;
9848;SDS011;4963;51.444;6.528;2022-12-18T09:58:19;13.47;;;8.50;;
9848;SDS011;4963;51.444;6.528;2022-12-18T10:00:52;12.20;;;8.13;;
9848;SDS011;4963;51.444;6.528;2022-12-18T10:03:19;14.37;;;8.33;;
9848;SDS011;4963;51.444;6.528;2022-12-18T10:05:50;14.00;;;7.53;;
9848;SDS011;4963;51.444;6.528;2022-12-18T10:08:28;12.30;;;8.03;;
9848;SDS011;4963;51.444;6.528;2022-12-18T10:11:09;12.27;;;7.60;;
9848;SDS011;4963;51.444;6.528;2022-12-18T10:13:49;13.67;;;8.87;;
9848;SDS011;4963;51.444;6.528;2022-12-18T10:16:22;13.03;;;8.90;;
9848;SDS011;4963;51.444;6.528;2022-12-18T10:19:01;12.40;;;8.23;;
9848;SDS011;4963;51.444;6.528;2022-12-18T10:21:39;12.43;;;8.20;;
9848;SDS011;4963;51.444;6.528;2022-12-18T10:24:15;16.00;;;10.83;;
9848;SDS011;4963;51.444;6.528;2022-12-18T10:26:48;13.80;;;8.17;;
9848;SDS011;4963;51.444;6.528;2022-12-18T10:29:15;14.33;;;8.67;;
9848;SDS011;4963;51.444;6.528;2022-12-18T10:31:43;13.07;;;8.53;;
9848;SDS011;4963;51.444;6.528;2022-12-18T10:34:09;13.30;;;7.17;;
9848;SDS011;4963;51.444;6.528;2022-12-18T10:36:36;13.33;;;8.00;;
9848;SDS011;4963;51.444;6.528;2022-12-18T10:39:18;11.47;;;8.30;;
9848;SDS011;4963;51.444;6.528;2022-12-18T10:41:47;14.97;;;8.23;;
9848;SDS011;4963;51.444;6.528;2022-12-18T10:44:16;12.07;;;8.17;;
9848;SDS011;4963;51.444;6.528;2022-12-18T10:46:45;14.97;;;8.40;;
9848;SDS011;4963;51.444;6.528;2022-12-18T10:49:20;13.30;;;9.03;;
9848;SDS011;4963;51.444;6.528;2022-12-18T10:51:49;12.03;;;7.90;;
9848;SDS011;4963;51.444;6.528;2022-12-18T10:54:19;12.10;;;7.33;;
9848;SDS011;4963;51.444;6.528;2022-12-18T10:56:48;14.20;;;9.10;;
9848;SDS011;4963;51.444;6.528;2022-12-18T10:59:16;13.00;;;8.47;;
9848;SDS011;4963;51.444;6.528;2022-12-18T11:01:48;15.23;;;8.60;;
9848;SDS011;4963;51.444;6.528;2022-12-18T11:04:19;13.90;;;7.93;;
9848;SDS011;4963;51.444;6.528;2022-12-18T11:06:55;11.93;;;8.30;;
9848;SDS011;4963;51.444;6.528;2022-12-18T11:09:25;14.20;;;8.17;;
9848;SDS011;4963;51.444;6.528;2022-12-18T11:11:53;12.67;;;8.47;;
9848;SDS011;4963;51.444;6.528;2022-12-18T11:14:23;13.53;;;8.67;;
9848;SDS011;4963;51.444;6.528;2022-12-18T11:16:51;15.60;;;8.53;;
9848;SDS011;4963;51.444;6.528;2022-12-18T11:19:21;17.03;;;8.87;;
9848;SDS011;4963;51.444;6.528;2022-12-18T11:21:53;11.73;;;7.93;;
9848;SDS011;4963;51.444;6.528;2022-12-18T11:24:24;13.43;;;8.37;;
9848;SDS011;4963;51.444;6.528;2022-12-18T11:26:55;13.90;;;9.30;;
9848;SDS011;4963;51.444;6.528;2022-12-18T11:29:24;11.70;;;7.83;;
9848;SDS011;4963;51.444;6.528;2022-12-18T11:32:09;14.27;;;8.77;;
9848;SDS011;4963;51.444;6.528;2022-12-18T11:34:58;19.27;;;11.60;;
9848;SDS011;4963;51.444;6.528;2022-12-18T11:37:29;15.83;;;9.37;;
9848;SDS011;4963;51.444;6.528;2022-12-18T11:39:59;15.90;;;10.07;;
9848;SDS011;4963;51.444;6.528;2022-12-18T11:42:34;12.67;;;8.67;;
9848;SDS011;4963;51.444;6.528;2022-12-18T11:45:08;15.90;;;9.50;;
9848;SDS011;4963;51.444;6.528;2022-12-18T11:47:56;15.00;;;9.33;;
9848;SDS011;4963;51.444;6.528;2022-12-18T11:50:29;18.37;;;10.97;;
9848;SDS011;4963;51.444;6.528;2022-12-18T11:53:04;16.50;;;10.77;;
9848;SDS011;4963;51.444;6.528;2022-12-18T11:55:39;20.63;;;11.13;;
9848;SDS011;4963;51.444;6.528;2022-12-18T11:58:15;18.57;;;11.30;;
9848;SDS011;4963;51.444;6.528;2022-12-18T12:00:52;18.70;;;11.00;;
9848;SDS011;4963;51.444;6.528;2022-12-18T12:06:20;15.07;;;9.20;;
9848;SDS011;4963;51.444;6.528;2022-12-18T12:08:56;14.50;;;9.60;;
9848;SDS011;4963;51.444;6.528;2022-12-18T12:11:32;13.73;;;9.27;;
9848;SDS011;4963;51.444;6.528;2022-12-18T12:14:14;14.90;;;9.90;;
9848;SDS011;4963;51.444;6.528;2022-12-18T12:16:54;15.83;;;10.27;;
9848;SDS011;4963;51.444;6.528;2022-12-18T12:19:30;17.87;;;11.10;;
9848;SDS011;4963;51.444;6.528;2022-12-18T12:22:06;16.30;;;10.60;;
9848;SDS011;4963;51.444;6.528;2022-12-18T12:24:44;18.20;;;10.70;;
9848;SDS011;4963;51.444;6.528;2022-12-18T12:27:20;17.10;;;10.10;;
9848;SDS011;4963;51.444;6.528;2022-12-18T12:29:57;16.57;;;9.80;;
9848;SDS011;4963;51.444;6.528;2022-12-18T12:32:36;17.17;;;9.93;;
9848;SDS011;4963;51.444;6.528;2022-12-18T12:35:19;17.73;;;9.40;;
9848;SDS011;4963;51.444;6.528;2022-12-18T12:37:56;13.70;;;10.00;;
9848;SDS011;4963;51.444;6.528;2022-12-18T12:40:31;16.27;;;10.13;;
9848;SDS011;4963;51.444;6.528;2022-12-18T12:43:02;16.10;;;9.77;;
9848;SDS011;4963;51.444;6.528;2022-12-18T12:45:40;21.10;;;11.27;;
9848;SDS011;4963;51.444;6.528;2022-12-18T12:48:13;18.47;;;11.40;;
9848;SDS011;4963;51.444;6.528;2022-12-18T12:50:44;17.53;;;10.70;;
9848;SDS011;4963;51.444;6.528;2022-12-18T12:53:21;17.60;;;11.20;;
9848;SDS011;4963;51.444;6.528;2022-12-18T12:55:52;16.50;;;10.37;;
9848;SDS011;4963;51.444;6.528;2022-12-18T12:58:23;18.60;;;11.77;;
9848;SDS011;4963;51.444;6.528;2022-12-18T13:00:59;17.70;;;11.60;;
9848;SDS011;4963;51.444;6.528;2022-12-18T13:03:35;18.83;;;11.43;;
9848;SDS011;4963;51.444;6.528;2022-12-18T13:06:10;17.80;;;10.87;;
9848;SDS011;4963;51.444;6.528;2022-12-18T13:08:52;18.07;;;10.60;;
9848;SDS011;4963;51.444;6.528;2022-12-18T13:11:31;22.37;;;12.03;;
9848;SDS011;4963;51.444;6.528;2022-12-18T13:14:22;19.17;;;10.97;;
9848;SDS011;4963;51.444;6.528;2022-12-18T13:16:50;15.70;;;10.30;;
9848;SDS011;4963;51.444;6.528;2022-12-18T13:19:23;19.90;;;11.83;;
9848;SDS011;4963;51.444;6.528;2022-12-18T13:21:53;19.37;;;11.83;;
9848;SDS011;4963;51.444;6.528;2022-12-18T13:24:23;17.30;;;11.60;;
9848;SDS011;4963;51.444;6.528;2022-12-18T13:26:52;16.90;;;10.17;;
9848;SDS011;4963;51.444;6.528;2022-12-18T13:32:21;20.17;;;11.97;;
9848;SDS011;4963;51.444;6.528;2022-12-18T13:37:59;17.40;;;11.30;;
9848;SDS011;4963;51.444;6.528;2022-12-18T13:43:32;20.17;;;11.50;;
9848;SDS011;4963;51.444;6.528;2022-12-18T13:46:16;19.53;;;11.80;;
9848;SDS011;4963;51.444;6.528;2022-12-18T13:48:52;19.30;;;12.50;;
9848;SDS011;4963;51.444;6.528;2022-12-18T13:51:22;18.50;;;11.20;;
9848;SDS011;4963;51.444;6.528;2022-12-18T13:53:50;19.83;;;13.07;;
9848;SDS011;4963;51.444;6.528;2022-12-18T13:56:22;19.93;;;12.33;;
9848;SDS011;4963;51.444;6.528;2022-12-18T13:59:04;18.97;;;12.63;;
9848;SDS011;4963;51.444;6.528;2022-12-18T14:01:40;20.67;;;12.20;;
9848;SDS011;4963;51.444;6.528;2022-12-18T14:04:08;21.33;;;13.47;;
9848;SDS011;4963;51.444;6.528;2022-12-18T14:06:36;22.37;;;13.53;;
9848;SDS011;4963;51.444;6.528;2022-12-18T14:09:03;24.43;;;13.03;;
9848;SDS011;4963;51.444;6.528;2022-12-18T14:11:30;22.90;;;13.57;;
9848;SDS011;4963;51.444;6.528;2022-12-18T14:13:58;21.37;;;12.83;;
9848;SDS011;4963;51.444;6.528;2022-12-18T14:16:24;22.57;;;13.53;;
9848;SDS011;4963;51.444;6.528;2022-12-18T14:18:53;18.80;;;11.87;;
9848;SDS011;4963;51.444;6.528;2022-12-18T14:21:23;21.33;;;12.13;;
9848;SDS011;4963;51.444;6.528;2022-12-18T14:24:05;25.40;;;14.17;;
9848;SDS011;4963;51.444;6.528;2022-12-18T14:26:38;20.60;;;13.90;;
9848;SDS011;4963;51.444;6.528;2022-12-18T14:29:17;22.00;;;14.67;;
9848;SDS011;4963;51.444;6.528;2022-12-18T14:34:38;22.40;;;12.90;;
9848;SDS011;4963;51.444;6.528;2022-12-18T14:37:05;22.43;;;13.50;;
9848;SDS011;4963;51.444;6.528;2022-12-18T14:39:35;21.70;;;12.83;;
9848;SDS011;4963;51.444;6.528;2022-12-18T14:42:02;23.87;;;13.97;;
9848;SDS011;4963;51.444;6.528;2022-12-18T14:44:29;20.40;;;12.60;;
9848;SDS011;4963;51.444;6.528;2022-12-18T14:46:55;23.60;;;13.63;;
9848;SDS011;4963;51.444;6.528;2022-12-18T14:49:23;21.47;;;13.37;;
9848;SDS011;4963;51.444;6.528;2022-12-18T14:51:54;23.40;;;12.60;;
9848;SDS011;4963;51.444;6.528;2022-12-18T14:54:23;20.83;;;12.63;;
9848;SDS011;4963;51.444;6.528;2022-12-18T14:56:51;23.50;;;13.93;;
9848;SDS011;4963;51.444;6.528;2022-12-18T14:59:25;21.07;;;13.37;;
9848;SDS011;4963;51.444;6.528;2022-12-18T15:01:56;22.53;;;14.00;;
9848;SDS011;4963;51.444;6.528;2022-12-18T15:04:26;22.80;;;13.83;;
9848;SDS011;4963;51.444;6.528;2022-12-18T15:07:09;24.50;;;15.27;;
9848;SDS011;4963;51.444;6.528;2022-12-18T15:09:40;24.60;;;15.27;;
9848;SDS011;4963;51.444;6.528;2022-12-18T15:12:28;26.10;;;15.37;;
9848;SDS011;4963;51.444;6.528;2022-12-18T15:15:00;21.30;;;13.80;;
9848;SDS011;4963;51.444;6.528;2022-12-18T15:17:28;21.73;;;13.07;;
9848;SDS011;4963;51.444;6.528;2022-12-18T15:19:58;23.57;;;14.07;;
9848;SDS011;4963;51.444;6.528;2022-12-18T15:22:29;22.17;;;14.37;;
9848;SDS011;4963;51.444;6.528;2022-12-18T15:24:57;20.23;;;12.97;;
9848;SDS011;4963;51.444;6.528;2022-12-18T15:27:25;23.60;;;14.77;;
9848;SDS011;4963;51.444;6.528;2022-12-18T15:30:16;21.20;;;13.07;;
9848;SDS011;4963;51.444;6.528;2022-12-18T15:32:46;21.50;;;14.30;;